Time;durP1;ratioP1;P1;durP2;ratioP2;P2;SDS_P1;SDS_P2;PMS_P1;PMS_P2;Temp;Humidity;BMP_temperature;BMP_pressure;BME280_temperature;BME280_humidity;BME280_pressure;Samples;Min_cycle;Max_cycle;Signal;HPM_P1;HPM_P2
2022/05/31 00:02:03;;;;;;;7.38;6.05;;;;;;;18.82;100.00;99951.84;5109979;22;20753;-77
2022/05/31 00:04:29;;;;;;;9.18;5.82;;;;;;;19.01;100.00;99948.03;4353275;28;10000589;-75
2022/05/31 00:06:55;;;;;;;12.35;6.53;;;;;;;18.71;100.00;99941.41;5019028;28;20103;-76
2022/05/31 00:09:21;;;;;;;8.05;6.15;;;;;;;18.98;100.00;99948.22;5017170;28;20450;-76
2022/05/31 00:11:47;;;;;;;8.60;5.97;;;;;;;19.18;100.00;99915.19;5035604;28;20473;-79
2022/05/31 00:14:14;;;;;;;8.77;5.75;;;;;;;19.14;100.00;99936.94;5017550;28;20029;-77
2022/05/31 00:16:40;;;;;;;6.35;5.55;;;;;;;19.26;100.00;99931.00;5017126;28;20502;-75
2022/05/31 00:19:06;;;;;;;7.40;6.13;;;;;;;18.98;100.00;99934.50;5034261;28;20065;-70
2022/05/31 00:21:45;;;;;;;12.80;6.93;;;;;;;18.86;100.00;99959.31;5045005;28;20037;-77
2022/05/31 00:24:14;;;;;;;9.05;6.55;;;;;;;19.15;100.00;99964.38;5054613;28;20033;-75
2022/05/31 00:26:40;;;;;;;10.02;6.65;;;;;;;19.02;100.00;99929.06;5054340;28;20079;-76
2022/05/31 00:29:08;;;;;;;9.80;6.20;;;;;;;18.94;100.00;99967.38;5036914;28;20032;-77
2022/05/31 00:31:35;;;;;;;9.80;6.35;;;;;;;18.72;100.00;99931.00;5053976;28;20039;-76
2022/05/31 00:34:01;;;;;;;9.55;6.13;;;;;;;19.00;100.00;99964.44;5053871;28;20033;-77
2022/05/31 00:36:26;;;;;;;8.40;6.75;;;;;;;18.60;100.00;99943.81;5054452;28;20028;-77
2022/05/31 00:38:54;;;;;;;9.55;7.10;;;;;;;18.72;100.00;99964.47;5054282;28;20060;-74
2022/05/31 00:41:29;;;;;;;8.77;7.07;;;;;;;18.54;100.00;99955.28;5054546;28;20086;-77
2022/05/31 00:44:12;;;;;;;9.25;7.47;;;;;;;18.10;100.00;99921.91;5054354;28;20032;-76
2022/05/31 00:46:43;;;;;;;8.02;6.90;;;;;;;18.27;100.00;99931.19;5054443;28;20075;-77
2022/05/31 00:49:11;;;;;;;;;;;;;;;18.53;100.00;99963.13;5054960;28;20140;-77
2022/05/31 00:51:56;;;;;;;8.05;6.38;;;;;;;18.30;100.00;99979.09;5053901;28;19917;-78
2022/05/31 00:54:25;;;;;;;7.28;6.22;;;;;;;18.21;100.00;99975.31;5036559;28;20040;-79
2022/05/31 00:56:53;;;;;;;9.27;6.63;;;;;;;18.13;100.00;99967.22;5054194;28;20040;-79
2022/05/31 00:59:24;;;;;;;8.55;6.93;;;;;;;18.37;100.00;99940.03;5053927;28;20036;-78
2022/05/31 01:01:53;;;;;;;8.65;6.43;;;;;;;18.13;100.00;99937.19;5054109;28;20032;-78
2022/05/31 01:04:24;;;;;;;9.07;6.55;;;;;;;18.27;100.00;99969.81;5037025;28;20033;-74
2022/05/31 01:06:49;;;;;;;7.05;6.28;;;;;;;18.30;100.00;99974.78;5036356;28;20029;-76
2022/05/31 01:09:15;;;;;;;9.65;6.70;;;;;;;18.47;100.00;99981.50;5053432;28;20569;-75
2022/05/31 01:11:43;;;;;;;8.63;6.63;;;;;;;17.90;100.00;99914.56;5053433;28;20033;-73
2022/05/31 01:14:11;;;;;;;10.40;7.13;;;;;;;18.27;100.00;99976.69;5052833;28;20470;-72
2022/05/31 01:16:51;;;;;;;11.32;7.28;;;;;;;18.10;100.00;99957.13;5052738;28;20028;-72
2022/05/31 01:19:55;;;;;;;9.20;7.15;;;;;;;17.94;100.00;99948.66;5051402;28;20045;-72
2022/05/31 01:22:02;;;;;;;10.25;9.13;;;;;;;18.47;100.00;99976.38;5032292;28;20713;-73
2022/05/31 01:24:29;;;;;;;12.65;8.63;;;;;;;18.40;100.00;99983.59;5015207;28;20108;-72
2022/05/31 01:27:04;;;;;;;12.75;8.55;;;;;;;18.13;100.00;99959.50;5015471;28;20029;-71
2022/05/31 01:29:36;;;;;;;11.55;7.90;;;;;;;18.57;100.00;99995.50;5014861;28;20411;-73
2022/05/31 01:32:05;;;;;;;11.98;6.85;;;;;;;18.21;100.00;99962.44;5014646;28;20060;-72
2022/05/31 01:35:12;;;;;;;10.55;7.40;;;;;;;17.97;100.00;99981.91;5031920;28;20029;-73
2022/05/31 01:37:52;;;;;;;11.93;7.65;;;;;;;18.20;100.00;100010.50;5012287;28;20041;-73
2022/05/31 01:40:50;;;;;;;8.52;6.75;;;;;;;18.17;100.00;99981.56;5032002;28;20131;-72
2022/05/31 01:43:16;;;;;;;7.88;7.00;;;;;;;17.79;100.00;99968.34;5017933;28;20065;-73
2022/05/31 01:45:55;;;;;;;8.85;6.90;;;;;;;18.05;100.00;100020.88;5032589;28;20029;-73
2022/05/31 01:48:22;;;;;;;8.98;6.32;;;;;;;17.59;100.00;99993.56;5032091;28;20493;-72
2022/05/31 01:50:48;;;;;;;7.70;6.75;;;;;;;17.58;100.00;100030.47;5032037;28;20365;-72
2022/05/31 01:53:16;;;;;;;9.70;6.10;;;;;;;16.82;100.00;100033.75;5031972;28;20036;-75
2022/05/31 01:55:43;;;;;;;8.35;5.95;;;;;;;17.02;100.00;100031.78;5032167;28;20033;-75
2022/05/31 01:58:16;;;;;;;10.90;5.68;;;;;;;17.26;100.00;100022.75;5032143;28;20087;-73
2022/05/31 02:00:41;;;;;;;8.43;5.70;;;;;;;16.65;100.00;100008.97;5030839;28;20482;-75
2022/05/31 02:03:07;;;;;;;7.57;5.30;;;;;;;17.27;100.00;100037.25;5032175;28;20041;-75
2022/05/31 02:05:34;;;;;;;9.00;5.70;;;;;;;16.51;100.00;100033.69;5031815;28;20087;-72
2022/05/31 02:08:03;;;;;;;7.25;5.47;;;;;;;16.65;100.00;100036.38;5014322;28;20029;-72
2022/05/31 02:10:31;;;;;;;8.55;5.88;;;;;;;16.48;100.00;99996.13;5031276;28;20113;-72
2022/05/31 02:12:56;;;;;;;9.63;5.72;;;;;;;16.71;100.00;99977.00;5031870;28;20029;-73
2022/05/31 02:15:23;;;;;;;8.13;6.05;;;;;;;16.74;100.00;100029.00;5031555;28;20083;-73
2022/05/31 02:17:49;;;;;;;10.00;6.35;;;;;;;17.22;100.00;100028.16;5031625;28;20048;-72
2022/05/31 02:20:14;;;;;;;9.20;6.43;;;;;;;17.03;100.00;99996.66;5013669;28;20033;-73
2022/05/31 02:22:40;;;;;;;9.45;6.47;;;;;;;16.60;100.00;100008.38;5031544;28;20086;-72
2022/05/31 02:25:06;;;;;;;8.10;6.30;;;;;;;16.68;100.00;99995.97;5014244;28;20495;-73
2022/05/31 02:27:32;;;;;;;12.23;7.38;;;;;;;16.38;100.00;100013.75;5031656;28;20033;-72
2022/05/31 02:29:57;;;;;;;10.15;7.05;;;;;;;16.76;100.00;100003.25;5031801;28;20033;-71
2022/05/31 02:32:23;;;;;;;8.40;6.45;;;;;;;16.89;100.00;99994.84;5031450;28;20022;-72
2022/05/31 02:34:50;;;;;;;9.65;6.78;;;;;;;16.88;100.00;100033.41;5031148;28;20057;-72
2022/05/31 02:37:17;;;;;;;9.10;6.47;;;;;;;17.00;100.00;100028.47;5031314;28;20037;-71
2022/05/31 02:39:42;;;;;;;15.02;8.48;;;;;;;17.08;100.00;100030.63;5031479;28;20030;-74
2022/05/31 02:42:09;;;;;;;10.25;7.68;;;;;;;17.13;100.00;100033.78;5013707;28;20187;-73
2022/05/31 02:44:34;;;;;;;11.82;7.70;;;;;;;16.88;100.00;100000.88;5031143;28;20029;-72
2022/05/31 02:47:01;;;;;;;9.65;7.72;;;;;;;17.40;100.00;100044.31;5037574;28;20047;-75
2022/05/31 02:49:27;;;;;;;10.23;7.88;;;;;;;17.49;100.00;100013.81;5051263;28;20037;-72
2022/05/31 02:51:52;;;;;;;8.20;7.10;;;;;;;17.61;100.00;100033.69;5051287;28;20506;-73
2022/05/31 02:54:20;;;;;;;9.88;7.10;;;;;;;17.41;100.00;100013.38;5051144;28;20041;-73
2022/05/31 02:56:46;;;;;;;9.57;7.25;;;;;;;17.68;100.00;100052.19;5050992;28;20039;-72
2022/05/31 02:59:12;;;;;;;9.10;7.28;;;;;;;17.30;100.00;100006.25;5049162;28;20417;-71
2022/05/31 03:01:40;;;;;;;10.77;7.45;;;;;;;17.69;100.00;100049.53;5045758;28;20025;-73
2022/05/31 03:04:07;;;;;;;9.90;6.72;;;;;;;17.76;100.00;100050.84;5032980;28;20087;-72
2022/05/31 03:06:33;;;;;;;9.75;7.35;;;;;;;17.75;100.00;100051.75;5051152;28;20040;-72
2022/05/31 03:08:59;;;;;;;10.88;8.10;;;;;;;17.49;100.00;100005.28;5023487;28;20038;-73
2022/05/31 03:11:33;;;;;;;11.13;7.55;;;;;;;17.18;100.00;100012.06;5011584;28;20034;-72
2022/05/31 03:14:30;;;;;;;11.25;7.30;;;;;;;17.42;100.00;99983.34;5029264;28;20491;-72
2022/05/31 03:17:04;;;;;;;10.40;6.90;;;;;;;18.07;100.00;100029.34;5041223;28;20041;-72
2022/05/31 03:19:33;;;;;;;8.95;6.85;;;;;;;18.19;100.00;100021.75;5051141;28;20118;-73
2022/05/31 03:22:08;;;;;;;9.82;5.97;;;;;;;18.52;100.00;100067.06;5050513;28;20029;-73
2022/05/31 03:24:38;;;;;;;8.73;6.70;;;;;;;18.19;100.00;100062.91;5040194;28;20491;-72
2022/05/31 03:27:06;;;;;;;11.10;6.82;;;;;;;18.24;100.00;100039.50;5017092;28;20120;-73
2022/05/31 03:29:34;;;;;;;9.88;7.55;;;;;;;18.02;100.00;100057.94;5029398;28;20038;-81
2022/05/31 03:31:59;;;;;;;11.10;7.50;;;;;;;17.84;100.00;100055.56;5038097;28;20110;-79
2022/05/31 03:34:25;;;;;;;13.68;7.50;;;;;;;18.07;100.00;100039.63;5034395;28;20487;-78
2022/05/31 03:36:50;;;;;;;11.30;7.05;;;;;;;18.28;100.00;100028.09;5034293;28;20030;-84
2022/05/31 03:39:16;;;;;;;10.65;7.45;;;;;;;18.52;100.00;100036.16;5034930;28;20055;-74
2022/05/31 03:41:41;;;;;;;10.20;7.20;;;;;;;18.98;100.00;100065.94;5046002;28;20052;-84
2022/05/31 03:44:06;;;;;;;12.38;7.20;;;;;;;18.71;100.00;100053.00;5044442;28;20081;-85
2022/05/31 03:46:33;;;;;;;9.73;7.82;;;;;;;18.82;100.00;100078.94;5034333;28;20022;-81
2022/05/31 03:48:59;;;;;;;8.48;6.93;;;;;;;18.56;100.00;100071.91;5028785;28;20383;-87
2022/05/31 03:51:25;;;;;;;27.02;19.08;;;;;;;18.74;100.00;100052.78;5055898;28;20036;-83
2022/05/31 03:53:50;;;;;;;21.23;14.20;;;;;;;19.08;100.00;100084.25;5055803;28;20029;-84
2022/05/31 03:56:15;;;;;;;16.77;11.63;;;;;;;18.94;100.00;100064.47;5055607;28;20025;-83
2022/05/31 03:58:41;;;;;;;17.02;9.52;;;;;;;18.95;100.00;100079.84;5046272;28;20029;-86
2022/05/31 04:01:07;;;;;;;10.90;9.50;;;;;;;19.09;100.00;100086.75;5048642;28;20491;-78
2022/05/31 04:03:32;;;;;;;12.13;9.20;;;;;;;18.96;100.00;100085.81;5055192;28;20048;-82
2022/05/31 04:05:58;;;;;;;18.50;9.32;;;;;;;18.40;100.00;100049.72;5055043;28;20140;-77
2022/05/31 04:08:24;;;;;;;18.00;7.82;;;;;;;18.76;100.00;100096.50;5054771;28;20029;-76
2022/05/31 04:10:51;;;;;;;15.75;6.90;;;;;;;18.35;100.00;100044.00;5021399;28;20043;-74
2022/05/31 04:13:17;;;;;;;12.38;7.50;;;;;;;18.69;100.00;100080.59;5016256;28;20135;-78
2022/05/31 04:15:43;;;;;;;14.98;7.30;;;;;;;18.46;100.00;100072.56;5016820;28;20380;-76
2022/05/31 04:18:08;;;;;;;14.63;7.60;;;;;;;18.44;100.00;100059.75;5016406;28;20116;-74
2022/05/31 04:20:37;;;;;;;15.35;7.78;;;;;;;18.68;100.00;100094.38;5016058;28;20033;-76
2022/05/31 04:25:48;;;;;;;14.95;8.18;;;;;;;18.95;100.00;100092.75;5034093;28;20072;-75
2022/05/31 04:28:14;;;;;;;14.50;8.25;;;;;;;18.99;100.00;100068.41;5016875;28;20037;-76
2022/05/31 04:30:44;;;;;;;13.13;8.50;;;;;;;19.31;100.00;100081.09;5034190;28;20028;-77
2022/05/31 04:33:10;;;;;;;12.10;8.48;;;;;;;19.32;100.00;100082.72;5015883;28;20029;-74
2022/05/31 04:35:35;;;;;;;13.57;9.80;;;;;;;19.77;100.00;100118.56;5015401;28;20121;-74
2022/05/31 04:38:00;;;;;;;13.35;9.45;;;;;;;19.64;100.00;100091.91;5015998;28;20052;-75
2022/05/31 04:40:26;;;;;;;15.38;8.50;;;;;;;20.36;100.00;100094.09;5036329;28;20136;-77
2022/05/31 04:42:52;;;;;;;15.00;8.85;;;;;;;20.49;100.00;100108.66;5052810;28;20086;-79
2022/05/31 04:45:18;;;;;;;14.10;8.90;;;;;;;20.31;100.00;100072.91;5035561;28;20037;-75
2022/05/31 04:47:44;;;;;;;13.23;8.77;;;;;;;20.60;100.00;100106.19;5032483;28;20034;-74
2022/05/31 04:50:10;;;;;;;13.32;8.20;;;;;;;20.65;100.00;100098.97;5031332;28;20027;-74
2022/05/31 04:52:36;;;;;;;15.10;8.07;;;;;;;20.89;100.00;100111.16;5031866;28;20071;-76
2022/05/31 04:55:03;;;;;;;12.35;8.35;;;;;;;20.97;100.00;100134.72;5032054;28;20060;-75
2022/05/31 04:57:28;;;;;;;16.88;8.73;;;;;;;21.34;100.00;100124.34;5032692;28;20116;-77
2022/05/31 04:59:54;;;;;;;13.07;8.00;;;;;;;21.11;100.00;100134.66;5014765;28;20128;-74
2022/05/31 05:02:19;;;;;;;11.60;7.07;;;;;;;20.98;100.00;100133.78;5031926;28;20047;-75
2022/05/31 05:04:45;;;;;;;8.38;6.43;;;;;;;21.54;100.00;100130.72;5031977;28;20033;-74
2022/05/31 05:07:10;;;;;;;10.27;7.10;;;;;;;21.79;100.00;100133.19;5032144;28;20124;-72
2022/05/31 05:09:35;;;;;;;15.85;7.00;;;;;;;21.79;100.00;100130.63;5015599;28;20549;-77
2022/05/31 05:12:01;;;;;;;11.05;6.93;;;;;;;21.80;100.00;100124.50;5032555;28;20034;-78
2022/05/31 05:14:26;;;;;;;9.90;7.05;;;;;;;21.67;100.00;100100.44;5014828;28;20456;-75
2022/05/31 05:16:53;;;;;;;11.35;6.78;;;;;;;21.98;100.00;100127.56;5032258;28;20029;-75
2022/05/31 05:19:18;;;;;;;7.68;5.50;;;;;;;21.79;100.00;100078.03;5032234;28;20036;-74
2022/05/31 05:21:44;;;;;;;8.25;5.78;;;;;;;22.74;100.00;100136.53;5032246;28;20419;-74
2022/05/31 05:24:09;;;;;;;8.38;5.53;;;;;;;22.53;100.00;100137.28;5032961;28;20034;-75
2022/05/31 05:26:36;;;;;;;9.48;5.47;;;;;;;22.85;100.00;100135.72;5032855;28;20029;-76
2022/05/31 05:31:46;;;;;;;8.10;5.10;;;;;;;23.00;100.00;100134.53;5032460;28;20040;-73
2022/05/31 05:34:11;;;;;;;8.00;5.10;;;;;;;23.51;100.00;100137.50;5032095;28;20127;-73
2022/05/31 05:36:37;;;;;;;8.45;4.53;;;;;;;23.22;100.00;100129.34;5032215;28;20022;-73
2022/05/31 05:39:02;;;;;;;6.50;4.63;;;;;;;22.82;100.00;100143.75;5032470;28;20459;-72
2022/05/31 05:41:30;;;;;;;8.48;3.95;;;;;;;23.15;100.00;100086.69;5032025;28;20037;-72
2022/05/31 05:43:55;;;;;;;7.63;4.32;;;;;;;23.41;100.00;100128.78;5032046;28;20034;-73
2022/05/31 05:46:23;;;;;;;6.60;4.07;;;;;;;24.26;100.00;100130.53;5032173;28;20032;-73
2022/05/31 05:48:50;;;;;;;8.10;4.18;;;;;;;23.94;100.00;100146.13;5031664;28;20112;-73
2022/05/31 05:51:25;;;;;;;8.35;4.80;;;;;;;23.94;100.00;100130.53;5014340;28;20087;-72
2022/05/31 05:53:51;;;;;;;9.88;4.75;;;;;;;23.92;100.00;100127.22;5032056;28;20107;-73
2022/05/31 05:56:17;;;;;;;8.75;7.13;;;;;;;24.29;100.00;100151.91;5031836;28;20033;-72
2022/05/31 05:58:43;;;;;;;11.82;8.40;;;;;;;24.59;100.00;100151.97;5014473;28;20079;-74
2022/05/31 06:01:39;;;;;;;9.52;6.35;;;;;;;24.72;100.00;100149.19;5032029;28;20032;-73
2022/05/31 06:04:21;;;;;;;7.70;4.47;;;;;;;24.71;100.00;100119.75;5031678;28;20120;-73
2022/05/31 06:06:52;;;;;;;7.20;4.35;;;;;;;24.00;100.00;100145.63;5031855;28;20103;-73
2022/05/31 06:09:22;;;;;;;5.45;4.03;;;;;;;24.15;100.00;100110.63;5031755;28;20030;-73
2022/05/31 06:11:53;;;;;;;7.68;4.47;;;;;;;25.15;100.00;100149.84;5031224;28;20088;-72
2022/05/31 06:14:35;;;;;;;;;;;;;;;25.55;100.00;100145.44;5031939;28;20087;-72
2022/05/31 06:17:06;;;;;;;9.35;3.92;;;;;;;25.37;100.00;100147.03;5013831;28;19919;-72
2022/05/31 06:19:35;;;;;;;5.82;3.38;;;;;;;24.60;100.00;100111.22;5013994;28;20057;-73
2022/05/31 06:22:03;;;;;;;5.70;3.50;;;;;;;25.14;100.00;100147.34;5013482;28;20103;-73
2022/05/31 06:24:31;;;;;;;5.63;3.40;;;;;;;25.50;100.00;100147.66;5014033;28;20029;-73
2022/05/31 06:26:58;;;;;;;6.85;3.53;;;;;;;25.55;100.00;100144.66;5031424;28;20049;-75
2022/05/31 06:29:23;;;;;;;5.72;3.45;;;;;;;26.10;100.00;100138.84;5014039;28;20034;-74
2022/05/31 06:31:48;;;;;;;7.10;4.03;;;;;;;25.18;100.00;100138.31;5031597;28;20036;-74
2022/05/31 06:34:15;;;;;;;9.05;4.00;;;;;;;25.51;100.00;100135.47;5031455;28;20040;-73
2022/05/31 06:36:41;;;;;;;5.47;3.33;;;;;;;25.69;100.00;100111.22;5031117;28;20022;-73
2022/05/31 06:39:08;;;;;;;6.53;3.58;;;;;;;26.32;100.00;100135.94;5031778;28;20509;-74
2022/05/31 06:41:34;;;;;;;6.63;3.78;;;;;;;26.48;100.00;100136.19;5013944;28;20022;-74
2022/05/31 06:44:00;;;;;;;7.22;3.80;;;;;;;26.30;100.00;100134.44;5013739;28;20041;-74
2022/05/31 06:46:26;;;;;;;6.63;3.30;;;;;;;25.98;100.00;100102.59;5013397;28;20475;-73
2022/05/31 06:48:53;;;;;;;6.03;3.47;;;;;;;26.06;100.00;100132.25;5031200;28;20099;-73
2022/05/31 06:56:58;;;;;;;6.63;3.35;;;;;;;25.92;100.00;100109.16;5031985;28;20506;-72
2022/05/31 06:59:24;;;;;;;5.65;3.40;;;;;;;27.23;100.00;100140.50;5034669;28;20100;-73
2022/05/31 07:01:49;;;;;;;7.47;3.67;;;;;;;27.02;100.00;100130.28;5034773;28;20029;-73
2022/05/31 07:04:15;;;;;;;12.32;3.70;;;;;;;26.26;100.00;100114.81;5035480;28;20037;-72
2022/05/31 07:06:41;;;;;;;5.65;3.70;;;;;;;26.71;100.00;100128.06;5035025;28;20111;-72
2022/05/31 07:09:07;;;;;;;8.88;3.58;;;;;;;27.08;100.00;100126.25;5034968;28;20487;-72
2022/05/31 07:11:32;;;;;;;7.45;3.28;;;;;;;27.02;100.00;100104.19;5034984;28;20025;-72
2022/05/31 07:14:00;;;;;;;9.88;3.60;;;;;;;27.12;100.00;100107.56;5034439;28;20480;-72
2022/05/31 07:16:26;;;;;;;7.05;3.42;;;;;;;26.84;100.00;100132.00;5016834;28;20026;-73
2022/05/31 07:18:51;;;;;;;7.20;3.42;;;;;;;27.15;100.00;100128.19;5017159;28;20021;-72
2022/05/31 07:21:16;;;;;;;6.88;3.72;;;;;;;27.19;99.22;100139.16;5034844;28;20116;-73
2022/05/31 07:23:42;;;;;;;7.32;3.58;;;;;;;27.19;98.98;100097.38;5034740;28;20025;-72
2022/05/31 07:26:09;;;;;;;7.38;3.65;;;;;;;27.52;100.00;100106.41;5034392;28;20037;-72
2022/05/31 07:28:34;;;;;;;9.23;3.60;;;;;;;27.70;96.51;100102.00;5034882;28;20030;-73
2022/05/31 07:31:00;;;;;;;7.38;3.70;;;;;;;28.46;94.42;100138.00;5016769;28;20033;-70
2022/05/31 07:33:26;;;;;;;7.78;3.30;;;;;;;27.40;100.00;100092.72;5034670;28;20040;-72
2022/05/31 07:35:51;;;;;;;7.57;3.70;;;;;;;27.81;99.48;100097.38;5034209;28;20029;-72
2022/05/31 07:38:20;;;;;;;5.63;3.75;;;;;;;27.50;95.81;100103.13;5034697;28;20032;-72
2022/05/31 07:40:46;;;;;;;5.20;3.80;;;;;;;28.04;91.78;100129.16;5034185;28;20505;-72
2022/05/31 07:43:12;;;;;;;8.57;3.88;;;;;;;27.40;91.17;100132.75;5016446;28;20137;-73
2022/05/31 07:45:37;;;;;;;7.20;3.60;;;;;;;28.05;88.29;100094.19;5033995;28;20514;-72
2022/05/31 07:48:04;;;;;;;7.35;3.95;;;;;;;28.32;88.33;100128.09;5034087;28;20029;-72
2022/05/31 07:50:29;;;;;;;6.80;4.00;;;;;;;28.62;91.15;100130.31;5034068;28;20037;-72
2022/05/31 07:52:54;;;;;;;12.25;3.97;;;;;;;27.55;92.22;100103.50;5033875;28;20025;-72
2022/05/31 07:55:21;;;;;;;10.23;4.40;;;;;;;28.31;92.64;100105.50;5034058;28;20037;-72
2022/05/31 08:00:31;;;;;;;9.73;4.20;;;;;;;28.81;88.03;100134.47;5034237;28;20125;-72
2022/05/31 08:02:57;;;;;;;11.88;4.03;;;;;;;28.54;86.52;100126.75;5033972;28;20057;-73
2022/05/31 08:05:22;;;;;;;14.10;4.10;;;;;;;28.75;86.08;100128.06;5034192;28;20553;-74
2022/05/31 08:07:49;;;;;;;5.78;3.97;;;;;;;29.15;83.36;100098.66;5033750;28;20440;-72
2022/05/31 08:10:17;;;;;;;7.40;4.30;;;;;;;28.83;86.53;100114.19;5033095;28;20068;-74
2022/05/31 08:12:42;;;;;;;8.90;3.97;;;;;;;29.12;85.41;100131.19;5016012;28;20035;-74
2022/05/31 08:15:09;;;;;;;8.15;3.75;;;;;;;28.93;86.85;100128.00;5033662;28;20120;-73
2022/05/31 08:17:34;;;;;;;7.97;3.80;;;;;;;29.13;84.88;100129.41;5033627;28;20368;-72
2022/05/31 08:20:00;;;;;;;5.38;3.75;;;;;;;29.67;80.76;100118.44;5015914;28;20057;-72
2022/05/31 08:22:25;;;;;;;7.10;3.85;;;;;;;29.55;82.05;100084.84;5033464;28;20117;-72
2022/05/31 08:24:51;;;;;;;10.07;4.00;;;;;;;30.22;77.63;100096.88;5034509;28;20036;-74
2022/05/31 08:27:16;;;;;;;8.82;4.10;;;;;;;29.65;80.34;100119.59;5016627;28;20496;-74
2022/05/31 08:29:42;;;;;;;11.63;6.50;;;;;;;28.64;77.58;100096.94;5034061;28;20034;-75
2022/05/31 08:32:07;;;;;;;11.32;6.70;;;;;;;29.23;76.65;100117.03;5034025;28;20036;-75
2022/05/31 08:34:33;;;;;;;9.50;3.78;;;;;;;28.93;74.83;100096.56;5016085;28;20037;-74
2022/05/31 08:36:59;;;;;;;6.72;3.75;;;;;;;29.97;68.05;100059.31;5033419;28;20480;-74
2022/05/31 08:39:25;;;;;;;8.13;3.70;;;;;;;30.01;69.61;100091.31;5033577;28;20029;-74
2022/05/31 08:42:01;;;;;;;5.65;3.58;;;;;;;30.48;69.70;100111.47;5033068;28;20509;-74
2022/05/31 08:44:26;;;;;;;4.53;3.58;;;;;;;30.05;67.74;100111.78;5033468;28;20513;-73
2022/05/31 08:47:07;;;;;;;5.67;3.17;;;;;;;28.86;73.53;100116.53;5015999;28;20033;-74
2022/05/31 08:52:44;;;;;;;6.45;3.55;;;;;;;29.82;68.16;100079.31;5033410;28;20048;-73
2022/05/31 08:58:13;;;;;;;9.88;4.20;;;;;;;29.14;71.85;100072.63;5033390;28;20095;-74
2022/05/31 09:00:43;;;;;;;7.90;3.90;;;;;;;29.23;71.80;100077.72;5015299;28;20053;-73
2022/05/31 09:03:25;;;;;;;7.32;3.92;;;;;;;29.78;71.99;100112.94;5032769;28;20068;-73
2022/05/31 09:06:07;;;;;;;6.28;3.65;;;;;;;30.59;71.37;100116.38;5033033;28;20040;-74
2022/05/31 09:08:55;;;;;;;6.50;3.95;;;;;;;30.51;70.06;100105.03;5032931;28;20037;-72
2022/05/31 09:11:23;;;;;;;6.88;3.75;;;;;;;31.20;68.00;100110.41;5032913;28;20103;-74
2022/05/31 09:14:10;;;;;;;5.95;3.60;;;;;;;31.28;66.11;100107.75;5032836;28;20041;-74
2022/05/31 09:17:15;;;;;;;10.65;4.03;;;;;;;29.98;69.99;100108.19;5032866;28;20076;-74
2022/05/31 09:19:58;;;;;;;7.57;3.58;;;;;;;29.87;71.11;100071.81;5011089;28;20048;-73
2022/05/31 09:22:23;;;;;;;7.80;3.55;;;;;;;30.13;68.55;100071.63;5015183;28;20043;-74
2022/05/31 09:24:49;;;;;;;7.55;3.88;;;;;;;31.83;64.12;100073.41;5015144;28;20034;-74
2022/05/31 09:27:39;;;;;;;7.45;3.60;;;;;;;30.40;63.42;100095.75;5014958;28;20082;-73
2022/05/31 09:30:10;;;;;;;8.60;3.73;;;;;;;31.58;62.85;100075.41;5032616;28;20100;-73
2022/05/31 09:33:07;;;;;;;7.60;3.65;;;;;;;30.86;63.41;100094.16;5015052;28;20069;-73
2022/05/31 09:35:44;;;;;;;9.02;3.88;;;;;;;31.47;62.80;100094.22;5032848;28;20087;-73
2022/05/31 09:38:28;;;;;;;6.80;3.60;;;;;;;30.88;63.64;100086.09;5031885;28;20064;-74
2022/05/31 09:41:09;;;;;;;6.70;4.20;;;;;;;31.06;65.40;100050.69;5032488;28;20196;-73
2022/05/31 09:43:45;;;;;;;7.68;4.18;;;;;;;30.55;64.17;100082.72;5032203;28;20029;-73
2022/05/31 09:46:29;;;;;;;8.77;3.75;;;;;;;30.21;65.86;100084.75;5014331;28;20037;-72
2022/05/31 09:48:57;;;;;;;7.50;4.32;;;;;;;31.32;64.23;100063.53;5014411;28;20032;-72
2022/05/31 09:51:30;;;;;;;7.97;3.95;;;;;;;31.17;63.64;100078.41;5014486;28;20033;-72
2022/05/31 09:59:28;;;;;;;6.97;4.03;;;;;;;31.25;63.85;100066.06;5032112;28;20099;-73
2022/05/31 10:01:54;;;;;;;5.47;3.70;;;;;;;30.83;63.63;100060.31;5014634;28;20464;-74
2022/05/31 10:04:29;;;;;;;8.88;4.10;;;;;;;31.47;61.34;100025.84;5032026;28;20075;-75
2022/05/31 10:07:03;;;;;;;5.63;4.18;;;;;;;31.18;60.68;100062.47;5032108;28;20025;-73
2022/05/31 10:09:33;;;;;;;9.63;4.05;;;;;;;31.39;60.59;100056.63;5031991;28;20098;-73
2022/05/31 10:12:12;;;;;;;7.80;3.83;;;;;;;31.46;60.58;100026.00;5014863;28;20072;-75
2022/05/31 10:14:50;;;;;;;7.03;3.83;;;;;;;30.93;60.49;100052.25;5031985;28;20155;-74
2022/05/31 10:17:35;;;;;;;5.63;4.10;;;;;;;31.53;60.86;100050.63;5014804;28;20029;-74
2022/05/31 10:20:12;;;;;;;9.10;4.18;;;;;;;31.54;59.41;100041.72;5032175;28;20091;-73
2022/05/31 10:22:38;;;;;;;6.35;4.13;;;;;;;31.32;60.15;100039.88;5014181;28;20083;-73
2022/05/31 10:25:33;;;;;;;6.72;3.83;;;;;;;31.20;60.27;100042.09;5014145;28;20392;-72
2022/05/31 10:28:01;;;;;;;6.13;3.97;;;;;;;31.81;59.97;100038.56;4999230;28;20040;-72
2022/05/31 10:30:28;;;;;;;9.52;4.20;;;;;;;31.22;59.89;100041.94;5031792;28;20030;-73
2022/05/31 10:33:05;;;;;;;8.25;4.22;;;;;;;31.85;59.69;100029.34;5031195;28;20030;-73
2022/05/31 10:35:34;;;;;;;8.05;3.63;;;;;;;31.66;58.46;100029.81;5013932;28;20029;-73
2022/05/31 10:38:29;;;;;;;5.68;4.15;;;;;;;30.36;60.01;100027.97;5013951;28;20021;-72
2022/05/31 10:40:56;;;;;;;9.45;3.70;;;;;;;31.05;60.51;99995.69;5013383;28;20044;-72
2022/05/31 10:43:33;;;;;;;9.27;3.92;;;;;;;32.71;58.70;100012.97;5013781;28;20029;-72
2022/05/31 10:46:01;;;;;;;7.03;3.67;;;;;;;32.36;56.93;100004.81;5031223;28;20037;-73
2022/05/31 10:48:27;;;;;;;8.20;4.30;;;;;;;31.21;57.02;100012.19;5013416;28;20181;-72
2022/05/31 10:51:12;;;;;;;10.13;3.67;;;;;;;32.40;55.67;99986.84;5031022;28;20083;-73
2022/05/31 10:54:02;;;;;;;7.93;3.90;;;;;;;32.90;56.98;100013.19;5013689;28;20045;-72
2022/05/31 10:56:46;;;;;;;6.53;3.70;;;;;;;33.02;56.16;100001.22;5031479;28;20027;-73
2022/05/31 10:59:17;;;;;;;9.18;4.20;;;;;;;31.71;54.21;99979.31;5031151;28;20045;-72
2022/05/31 11:02:07;;;;;;;8.13;3.80;;;;;;;32.42;53.39;100013.81;5013364;28;20045;-73
2022/05/31 11:04:47;;;;;;;8.35;3.50;;;;;;;33.01;52.23;100010.13;5013641;28;20396;-73
2022/05/31 11:07:21;;;;;;;6.70;3.47;;;;;;;32.60;53.70;100013.44;5030924;28;20036;-73
2022/05/31 11:13:16;;;;;;;8.07;3.35;;;;;;;31.68;53.21;100006.78;5030763;28;20123;-73
2022/05/31 11:16:01;;;;;;;12.70;5.30;;;;;;;32.29;53.05;99997.81;5030996;28;20030;-74
2022/05/31 11:18:42;;;;;;;8.98;3.67;;;;;;;32.18;53.86;99999.09;5013527;28;20045;-74
2022/05/31 11:21:32;;;;;;;7.00;3.20;;;;;;;31.53;55.01;99993.59;5013571;28;20510;-74
2022/05/31 11:24:12;;;;;;;17.08;3.90;;;;;;;32.79;52.94;99978.63;5013284;28;20099;-71
2022/05/31 11:27:03;;;;;;;6.60;3.70;;;;;;;32.94;53.09;99989.97;5030715;28;20035;-72
2022/05/31 11:30:11;;;;;;;9.07;3.10;;;;;;;32.00;50.35;99985.47;5031317;28;20041;-74
2022/05/31 11:32:48;;;;;;;7.13;3.17;;;;;;;32.25;49.80;99976.28;5005712;28;20029;-72
2022/05/31 11:35:51;;;;;;;8.43;3.40;;;;;;;33.51;48.48;99980.22;5030792;28;20033;-72
2022/05/31 11:38:46;;;;;;;7.18;2.90;;;;;;;32.37;48.22;99974.84;5030825;28;20040;-72
2022/05/31 11:41:33;;;;;;;10.63;3.20;;;;;;;32.79;49.16;99970.72;5030643;28;20026;-73
2022/05/31 11:44:17;;;;;;;6.03;3.03;;;;;;;33.16;48.71;99963.44;5033092;28;20083;-73
2022/05/31 11:46:48;;;;;;;5.20;2.72;;;;;;;33.04;47.55;99951.75;5017086;28;20123;-72
2022/05/31 11:49:26;;;;;;;5.85;3.17;;;;;;;32.95;48.04;99970.50;5034371;28;20064;-73
2022/05/31 11:52:08;;;;;;;6.75;2.75;;;;;;;33.59;47.09;99951.06;5034494;28;20037;-74
2022/05/31 11:55:28;;;;;;;6.65;3.00;;;;;;;33.08;47.18;99962.75;5034259;28;20083;-73
2022/05/31 11:58:33;;;;;;;6.55;2.80;;;;;;;33.44;47.24;99936.31;4992579;28;20049;-73
2022/05/31 12:01:11;;;;;;;10.10;3.00;;;;;;;32.29;47.34;99914.38;5033869;28;20025;-72
2022/05/31 12:04:05;;;;;;;5.78;3.13;;;;;;;32.88;49.01;99951.97;5033669;28;20428;-73
2022/05/31 12:06:53;;;;;;;8.15;3.05;;;;;;;31.39;50.96;99948.84;5016434;28;20030;-72